sensor_id;sensor_type;location;lat;lon;timestamp;P1;durP1;ratioP1;P2;durP2;ratioP2
24735;SDS011;12840;48.144;17.136;2023-03-04T00:02:09;53.93;;;22.87;;
24735;SDS011;12840;48.144;17.136;2023-03-04T00:04:36;54.77;;;23.40;;
24735;SDS011;12840;48.144;17.136;2023-03-04T00:07:04;57.00;;;22.97;;
24735;SDS011;12840;48.144;17.136;2023-03-04T00:09:31;55.10;;;22.83;;
24735;SDS011;12840;48.144;17.136;2023-03-04T00:11:59;56.37;;;23.03;;
24735;SDS011;12840;48.144;17.136;2023-03-04T00:14:26;53.20;;;23.00;;
24735;SDS011;12840;48.144;17.136;2023-03-04T00:16:55;52.33;;;22.10;;
24735;SDS011;12840;48.144;17.136;2023-03-04T00:19:23;53.60;;;22.67;;
24735;SDS011;12840;48.144;17.136;2023-03-04T00:21:50;59.63;;;23.47;;
24735;SDS011;12840;48.144;17.136;2023-03-04T00:24:18;54.07;;;22.27;;
24735;SDS011;12840;48.144;17.136;2023-03-04T00:26:45;52.83;;;22.27;;
24735;SDS011;12840;48.144;17.136;2023-03-04T00:29:13;53.40;;;22.20;;
24735;SDS011;12840;48.144;17.136;2023-03-04T00:31:40;52.10;;;22.30;;
24735;SDS011;12840;48.144;17.136;2023-03-04T00:34:09;53.87;;;23.10;;
24735;SDS011;12840;48.144;17.136;2023-03-04T00:36:37;49.73;;;22.83;;
24735;SDS011;12840;48.144;17.136;2023-03-04T00:39:04;53.63;;;22.27;;
24735;SDS011;12840;48.144;17.136;2023-03-04T00:41:32;51.50;;;22.33;;
24735;SDS011;12840;48.144;17.136;2023-03-04T00:43:59;51.57;;;21.13;;
24735;SDS011;12840;48.144;17.136;2023-03-04T00:46:27;53.03;;;21.90;;
24735;SDS011;12840;48.144;17.136;2023-03-04T00:48:54;51.73;;;21.67;;
24735;SDS011;12840;48.144;17.136;2023-03-04T00:51:23;54.83;;;22.07;;
24735;SDS011;12840;48.144;17.136;2023-03-04T00:53:51;51.40;;;21.40;;
24735;SDS011;12840;48.144;17.136;2023-03-04T00:56:18;52.73;;;21.70;;
24735;SDS011;12840;48.144;17.136;2023-03-04T00:58:46;70.77;;;28.17;;
24735;SDS011;12840;48.144;17.136;2023-03-04T01:01:13;64.43;;;25.43;;
24735;SDS011;12840;48.144;17.136;2023-03-04T01:03:41;49.70;;;21.80;;
24735;SDS011;12840;48.144;17.136;2023-03-04T01:06:09;52.73;;;22.27;;
24735;SDS011;12840;48.144;17.136;2023-03-04T01:08:38;53.27;;;20.47;;
24735;SDS011;12840;48.144;17.136;2023-03-04T01:11:05;53.77;;;22.77;;
24735;SDS011;12840;48.144;17.136;2023-03-04T01:13:33;50.90;;;20.93;;
24735;SDS011;12840;48.144;17.136;2023-03-04T01:16:00;55.47;;;22.37;;
24735;SDS011;12840;48.144;17.136;2023-03-04T01:18:29;53.57;;;21.37;;
24735;SDS011;12840;48.144;17.136;2023-03-04T01:20:56;53.63;;;20.93;;
24735;SDS011;12840;48.144;17.136;2023-03-04T01:23:24;58.10;;;22.00;;
24735;SDS011;12840;48.144;17.136;2023-03-04T01:25:53;55.03;;;21.93;;
24735;SDS011;12840;48.144;17.136;2023-03-04T01:28:20;57.57;;;22.20;;
24735;SDS011;12840;48.144;17.136;2023-03-04T01:30:48;49.57;;;21.30;;
24735;SDS011;12840;48.144;17.136;2023-03-04T01:33:16;55.17;;;22.27;;
24735;SDS011;12840;48.144;17.136;2023-03-04T01:35:43;54.33;;;22.10;;
24735;SDS011;12840;48.144;17.136;2023-03-04T01:38:11;49.60;;;21.63;;
24735;SDS011;12840;48.144;17.136;2023-03-04T01:40:38;52.60;;;21.83;;
24735;SDS011;12840;48.144;17.136;2023-03-04T01:43:08;56.67;;;22.50;;
24735;SDS011;12840;48.144;17.136;2023-03-04T01:45:37;55.63;;;23.03;;
24735;SDS011;12840;48.144;17.136;2023-03-04T01:48:05;53.03;;;21.47;;
24735;SDS011;12840;48.144;17.136;2023-03-04T01:50:33;54.77;;;22.17;;
24735;SDS011;12840;48.144;17.136;2023-03-04T01:53:01;50.03;;;22.23;;
24735;SDS011;12840;48.144;17.136;2023-03-04T01:55:29;54.50;;;22.50;;
24735;SDS011;12840;48.144;17.136;2023-03-04T01:57:57;57.13;;;22.23;;
24735;SDS011;12840;48.144;17.136;2023-03-04T02:00:28;56.17;;;23.67;;
24735;SDS011;12840;48.144;17.136;2023-03-04T02:02:57;59.30;;;22.57;;
24735;SDS011;12840;48.144;17.136;2023-03-04T02:05:26;61.03;;;22.73;;
24735;SDS011;12840;48.144;17.136;2023-03-04T02:07:54;54.60;;;22.73;;
24735;SDS011;12840;48.144;17.136;2023-03-04T02:10:22;53.00;;;22.13;;
24735;SDS011;12840;48.144;17.136;2023-03-04T02:12:50;57.70;;;22.33;;
24735;SDS011;12840;48.144;17.136;2023-03-04T02:15:17;53.80;;;21.67;;
24735;SDS011;12840;48.144;17.136;2023-03-04T02:17:46;55.13;;;21.90;;
24735;SDS011;12840;48.144;17.136;2023-03-04T02:20:16;55.17;;;21.50;;
24735;SDS011;12840;48.144;17.136;2023-03-04T02:22:48;55.97;;;22.27;;
24735;SDS011;12840;48.144;17.136;2023-03-04T02:25:20;54.70;;;22.10;;
24735;SDS011;12840;48.144;17.136;2023-03-04T02:27:49;53.63;;;21.67;;
24735;SDS011;12840;48.144;17.136;2023-03-04T02:30:19;55.97;;;22.23;;
24735;SDS011;12840;48.144;17.136;2023-03-04T02:32:47;55.67;;;22.13;;
24735;SDS011;12840;48.144;17.136;2023-03-04T02:35:15;53.17;;;22.77;;
24735;SDS011;12840;48.144;17.136;2023-03-04T02:37:43;57.20;;;23.43;;
24735;SDS011;12840;48.144;17.136;2023-03-04T02:40:12;56.13;;;21.40;;
24735;SDS011;12840;48.144;17.136;2023-03-04T02:42:42;57.27;;;22.57;;
24735;SDS011;12840;48.144;17.136;2023-03-04T02:47:53;53.30;;;22.13;;
24735;SDS011;12840;48.144;17.136;2023-03-04T02:50:20;49.97;;;20.33;;
24735;SDS011;12840;48.144;17.136;2023-03-04T02:52:48;51.73;;;21.33;;
24735;SDS011;12840;48.144;17.136;2023-03-04T02:55:16;54.10;;;21.93;;
24735;SDS011;12840;48.144;17.136;2023-03-04T02:57:43;54.13;;;21.47;;
24735;SDS011;12840;48.144;17.136;2023-03-04T03:00:11;58.03;;;22.40;;
24735;SDS011;12840;48.144;17.136;2023-03-04T03:02:39;53.17;;;21.87;;
24735;SDS011;12840;48.144;17.136;2023-03-04T03:05:08;59.00;;;22.77;;
24735;SDS011;12840;48.144;17.136;2023-03-04T03:07:35;53.20;;;22.30;;
24735;SDS011;12840;48.144;17.136;2023-03-04T03:10:03;60.47;;;23.07;;
24735;SDS011;12840;48.144;17.136;2023-03-04T03:12:31;60.50;;;22.20;;
24735;SDS011;12840;48.144;17.136;2023-03-04T03:14:58;57.53;;;21.97;;
24735;SDS011;12840;48.144;17.136;2023-03-04T03:17:26;57.07;;;22.77;;
24735;SDS011;12840;48.144;17.136;2023-03-04T03:19:53;54.17;;;21.87;;
24735;SDS011;12840;48.144;17.136;2023-03-04T03:22:22;51.70;;;20.80;;
24735;SDS011;12840;48.144;17.136;2023-03-04T03:24:50;56.27;;;21.77;;
24735;SDS011;12840;48.144;17.136;2023-03-04T03:27:17;53.27;;;21.90;;
24735;SDS011;12840;48.144;17.136;2023-03-04T03:29:45;51.73;;;21.47;;
24735;SDS011;12840;48.144;17.136;2023-03-04T03:32:12;54.43;;;21.07;;
24735;SDS011;12840;48.144;17.136;2023-03-04T03:34:40;52.43;;;20.40;;
24735;SDS011;12840;48.144;17.136;2023-03-04T03:37:07;50.27;;;20.53;;
24735;SDS011;12840;48.144;17.136;2023-03-04T03:39:36;49.80;;;20.33;;
24735;SDS011;12840;48.144;17.136;2023-03-04T03:42:04;47.17;;;20.03;;
24735;SDS011;12840;48.144;17.136;2023-03-04T03:44:31;49.03;;;20.63;;
24735;SDS011;12840;48.144;17.136;2023-03-04T03:46:59;46.07;;;19.17;;
24735;SDS011;12840;48.144;17.136;2023-03-04T03:49:26;47.47;;;19.37;;
24735;SDS011;12840;48.144;17.136;2023-03-04T03:51:54;49.03;;;19.03;;
24735;SDS011;12840;48.144;17.136;2023-03-04T03:54:21;46.27;;;18.63;;
24735;SDS011;12840;48.144;17.136;2023-03-04T03:56:50;48.40;;;19.23;;
24735;SDS011;12840;48.144;17.136;2023-03-04T03:59:18;46.23;;;18.90;;
24735;SDS011;12840;48.144;17.136;2023-03-04T04:01:45;45.83;;;18.97;;
24735;SDS011;12840;48.144;17.136;2023-03-04T04:04:13;45.20;;;17.90;;
24735;SDS011;12840;48.144;17.136;2023-03-04T04:06:40;47.00;;;18.23;;
24735;SDS011;12840;48.144;17.136;2023-03-04T04:09:08;44.10;;;18.70;;
24735;SDS011;12840;48.144;17.136;2023-03-04T04:11:35;44.63;;;17.63;;
24735;SDS011;12840;48.144;17.136;2023-03-04T04:14:04;42.00;;;17.43;;
24735;SDS011;12840;48.144;17.136;2023-03-04T04:16:32;41.20;;;17.63;;
24735;SDS011;12840;48.144;17.136;2023-03-04T04:18:59;43.07;;;17.80;;
24735;SDS011;12840;48.144;17.136;2023-03-04T04:21:27;45.00;;;17.80;;
24735;SDS011;12840;48.144;17.136;2023-03-04T04:23:54;41.73;;;17.47;;
24735;SDS011;12840;48.144;17.136;2023-03-04T04:26:22;39.63;;;17.57;;
24735;SDS011;12840;48.144;17.136;2023-03-04T04:28:49;40.37;;;17.30;;
24735;SDS011;12840;48.144;17.136;2023-03-04T04:31:18;42.03;;;16.10;;
24735;SDS011;12840;48.144;17.136;2023-03-04T04:33:46;40.57;;;17.40;;
24735;SDS011;12840;48.144;17.136;2023-03-04T04:36:13;44.77;;;17.40;;
24735;SDS011;12840;48.144;17.136;2023-03-04T04:38:41;41.87;;;16.43;;
24735;SDS011;12840;48.144;17.136;2023-03-04T04:41:12;41.83;;;17.27;;
24735;SDS011;12840;48.144;17.136;2023-03-04T04:43:44;37.57;;;15.80;;
24735;SDS011;12840;48.144;17.136;2023-03-04T04:46:11;38.80;;;16.07;;
24735;SDS011;12840;48.144;17.136;2023-03-04T04:48:40;34.73;;;16.00;;
24735;SDS011;12840;48.144;17.136;2023-03-04T04:51:08;38.23;;;16.20;;
24735;SDS011;12840;48.144;17.136;2023-03-04T04:53:35;30.07;;;12.73;;
24735;SDS011;12840;48.144;17.136;2023-03-04T04:56:10;31.93;;;13.57;;
24735;SDS011;12840;48.144;17.136;2023-03-04T04:58:37;28.83;;;12.73;;
24735;SDS011;12840;48.144;17.136;2023-03-04T05:01:05;34.20;;;14.60;;
24735;SDS011;12840;48.144;17.136;2023-03-04T05:03:33;31.33;;;13.17;;
24735;SDS011;12840;48.144;17.136;2023-03-04T05:06:03;29.07;;;13.40;;
24735;SDS011;12840;48.144;17.136;2023-03-04T05:08:31;29.63;;;12.47;;
24735;SDS011;12840;48.144;17.136;2023-03-04T05:10:58;25.47;;;12.67;;
24735;SDS011;12840;48.144;17.136;2023-03-04T05:13:26;30.03;;;14.13;;
24735;SDS011;12840;48.144;17.136;2023-03-04T05:15:54;34.20;;;14.53;;
24735;SDS011;12840;48.144;17.136;2023-03-04T05:18:22;31.40;;;14.20;;
24735;SDS011;12840;48.144;17.136;2023-03-04T05:20:50;31.57;;;13.67;;
24735;SDS011;12840;48.144;17.136;2023-03-04T05:23:19;33.47;;;15.03;;
24735;SDS011;12840;48.144;17.136;2023-03-04T05:25:47;34.97;;;15.40;;
24735;SDS011;12840;48.144;17.136;2023-03-04T05:28:14;34.53;;;14.53;;
24735;SDS011;12840;48.144;17.136;2023-03-04T05:30:43;32.47;;;14.53;;
24735;SDS011;12840;48.144;17.136;2023-03-04T05:33:12;37.43;;;15.60;;
24735;SDS011;12840;48.144;17.136;2023-03-04T05:35:40;37.27;;;15.97;;
24735;SDS011;12840;48.144;17.136;2023-03-04T05:38:09;37.43;;;15.67;;
24735;SDS011;12840;48.144;17.136;2023-03-04T05:40:38;37.53;;;16.43;;
24735;SDS011;12840;48.144;17.136;2023-03-04T05:43:06;39.20;;;16.70;;
24735;SDS011;12840;48.144;17.136;2023-03-04T05:45:33;42.97;;;16.47;;
24735;SDS011;12840;48.144;17.136;2023-03-04T05:48:01;40.03;;;17.20;;
24735;SDS011;12840;48.144;17.136;2023-03-04T05:50:29;36.07;;;16.53;;
24735;SDS011;12840;48.144;17.136;2023-03-04T05:52:56;36.67;;;16.57;;
24735;SDS011;12840;48.144;17.136;2023-03-04T05:55:24;35.90;;;16.10;;
24735;SDS011;12840;48.144;17.136;2023-03-04T05:57:54;38.47;;;16.37;;
24735;SDS011;12840;48.144;17.136;2023-03-04T06:00:22;34.73;;;14.93;;
24735;SDS011;12840;48.144;17.136;2023-03-04T06:02:50;36.73;;;15.40;;
24735;SDS011;12840;48.144;17.136;2023-03-04T06:05:17;32.40;;;14.47;;
24735;SDS011;12840;48.144;17.136;2023-03-04T06:07:45;38.67;;;15.77;;
24735;SDS011;12840;48.144;17.136;2023-03-04T06:10:15;29.43;;;14.47;;
24735;SDS011;12840;48.144;17.136;2023-03-04T06:12:43;36.07;;;15.30;;
24735;SDS011;12840;48.144;17.136;2023-03-04T06:15:12;32.77;;;14.50;;
24735;SDS011;12840;48.144;17.136;2023-03-04T06:17:40;33.07;;;14.83;;
24735;SDS011;12840;48.144;17.136;2023-03-04T06:20:09;32.30;;;14.03;;
24735;SDS011;12840;48.144;17.136;2023-03-04T06:22:37;33.20;;;15.50;;
24735;SDS011;12840;48.144;17.136;2023-03-04T06:25:05;33.17;;;14.47;;
24735;SDS011;12840;48.144;17.136;2023-03-04T06:27:33;33.00;;;15.17;;
24735;SDS011;12840;48.144;17.136;2023-03-04T06:30:01;34.53;;;16.03;;
24735;SDS011;12840;48.144;17.136;2023-03-04T06:32:30;33.00;;;15.63;;
24735;SDS011;12840;48.144;17.136;2023-03-04T06:34:58;31.43;;;14.60;;
24735;SDS011;12840;48.144;17.136;2023-03-04T06:37:25;31.17;;;15.40;;
24735;SDS011;12840;48.144;17.136;2023-03-04T06:39:53;32.27;;;15.63;;
24735;SDS011;12840;48.144;17.136;2023-03-04T06:42:21;33.57;;;15.80;;
24735;SDS011;12840;48.144;17.136;2023-03-04T06:44:48;33.03;;;15.80;;
24735;SDS011;12840;48.144;17.136;2023-03-04T06:47:16;32.10;;;15.13;;
24735;SDS011;12840;48.144;17.136;2023-03-04T06:49:45;33.70;;;15.33;;
24735;SDS011;12840;48.144;17.136;2023-03-04T06:52:13;31.93;;;14.93;;
24735;SDS011;12840;48.144;17.136;2023-03-04T06:54:41;34.13;;;15.30;;
24735;SDS011;12840;48.144;17.136;2023-03-04T06:57:08;30.10;;;15.50;;
24735;SDS011;12840;48.144;17.136;2023-03-04T06:59:37;34.40;;;15.73;;
24735;SDS011;12840;48.144;17.136;2023-03-04T07:02:05;35.23;;;15.53;;
24735;SDS011;12840;48.144;17.136;2023-03-04T07:04:33;32.78;;;15.25;;
24735;SDS011;12840;48.144;17.136;2023-03-04T07:07:02;33.17;;;16.47;;
24735;SDS011;12840;48.144;17.136;2023-03-04T07:09:29;32.80;;;16.73;;
24735;SDS011;12840;48.144;17.136;2023-03-04T07:11:57;34.37;;;17.53;;
24735;SDS011;12840;48.144;17.136;2023-03-04T07:14:24;34.10;;;18.77;;
24735;SDS011;12840;48.144;17.136;2023-03-04T07:16:52;32.88;;;18.33;;
24735;SDS011;12840;48.144;17.136;2023-03-04T07:19:20;31.17;;;19.13;;
24735;SDS011;12840;48.144;17.136;2023-03-04T07:21:47;28.73;;;18.85;;
24735;SDS011;12840;48.144;17.136;2023-03-04T07:24:16;38.50;;;21.30;;
24735;SDS011;12840;48.144;17.136;2023-03-04T07:26:44;32.95;;;20.80;;
24735;SDS011;12840;48.144;17.136;2023-03-04T07:29:12;33.83;;;21.33;;
24735;SDS011;12840;48.144;17.136;2023-03-04T07:31:39;34.25;;;21.50;;
24735;SDS011;12840;48.144;17.136;2023-03-04T07:34:09;38.38;;;22.58;;
24735;SDS011;12840;48.144;17.136;2023-03-04T07:36:38;37.47;;;23.60;;
24735;SDS011;12840;48.144;17.136;2023-03-04T07:39:06;37.15;;;24.50;;
24735;SDS011;12840;48.144;17.136;2023-03-04T07:41:36;41.47;;;25.02;;
24735;SDS011;12840;48.144;17.136;2023-03-04T07:44:04;40.40;;;25.42;;
24735;SDS011;12840;48.144;17.136;2023-03-04T07:46:35;40.17;;;24.98;;
24735;SDS011;12840;48.144;17.136;2023-03-04T07:49:03;43.05;;;26.15;;
24735;SDS011;12840;48.144;17.136;2023-03-04T07:51:30;46.40;;;26.08;;
24735;SDS011;12840;48.144;17.136;2023-03-04T07:53:59;43.70;;;26.48;;
24735;SDS011;12840;48.144;17.136;2023-03-04T07:56:28;40.27;;;24.90;;
24735;SDS011;12840;48.144;17.136;2023-03-04T07:58:57;42.95;;;25.83;;
24735;SDS011;12840;48.144;17.136;2023-03-04T08:01:26;41.38;;;25.38;;
24735;SDS011;12840;48.144;17.136;2023-03-04T08:03:53;42.10;;;26.52;;
24735;SDS011;12840;48.144;17.136;2023-03-04T08:06:21;39.72;;;24.85;;
24735;SDS011;12840;48.144;17.136;2023-03-04T08:08:54;45.25;;;26.98;;
24735;SDS011;12840;48.144;17.136;2023-03-04T08:11:21;47.80;;;27.60;;
24735;SDS011;12840;48.144;17.136;2023-03-04T08:13:49;45.63;;;27.27;;
24735;SDS011;12840;48.144;17.136;2023-03-04T08:16:20;45.50;;;27.17;;
24735;SDS011;12840;48.144;17.136;2023-03-04T08:18:48;46.93;;;26.80;;
24735;SDS011;12840;48.144;17.136;2023-03-04T08:21:16;46.90;;;26.80;;
24735;SDS011;12840;48.144;17.136;2023-03-04T08:23:44;46.53;;;25.50;;
24735;SDS011;12840;48.144;17.136;2023-03-04T08:26:13;48.53;;;25.57;;
24735;SDS011;12840;48.144;17.136;2023-03-04T08:28:41;42.97;;;24.50;;
24735;SDS011;12840;48.144;17.136;2023-03-04T08:31:10;44.47;;;23.53;;
24735;SDS011;12840;48.144;17.136;2023-03-04T08:33:39;45.67;;;25.60;;
24735;SDS011;12840;48.144;17.136;2023-03-04T08:36:07;44.47;;;24.80;;
24735;SDS011;12840;48.144;17.136;2023-03-04T08:38:34;47.80;;;26.27;;
24735;SDS011;12840;48.144;17.136;2023-03-04T08:41:02;50.67;;;26.27;;
24735;SDS011;12840;48.144;17.136;2023-03-04T08:43:30;46.47;;;26.60;;
24735;SDS011;12840;48.144;17.136;2023-03-04T08:45:57;46.90;;;25.10;;
24735;SDS011;12840;48.144;17.136;2023-03-04T08:48:25;47.07;;;25.43;;
24735;SDS011;12840;48.144;17.136;2023-03-04T08:50:54;45.40;;;23.97;;
24735;SDS011;12840;48.144;17.136;2023-03-04T08:53:21;46.60;;;24.37;;
24735;SDS011;12840;48.144;17.136;2023-03-04T08:55:49;48.73;;;25.00;;
24735;SDS011;12840;48.144;17.136;2023-03-04T08:58:17;44.23;;;23.63;;
24735;SDS011;12840;48.144;17.136;2023-03-04T09:00:45;47.33;;;24.90;;
24735;SDS011;12840;48.144;17.136;2023-03-04T09:03:13;52.17;;;26.00;;
24735;SDS011;12840;48.144;17.136;2023-03-04T09:05:43;46.03;;;25.80;;
24735;SDS011;12840;48.144;17.136;2023-03-04T09:08:12;50.00;;;26.17;;
24735;SDS011;12840;48.144;17.136;2023-03-04T09:10:40;48.30;;;25.33;;
24735;SDS011;12840;48.144;17.136;2023-03-04T09:13:07;45.27;;;25.40;;
24735;SDS011;12840;48.144;17.136;2023-03-04T09:15:36;46.27;;;24.80;;
24735;SDS011;12840;48.144;17.136;2023-03-04T09:18:04;50.63;;;25.57;;
24735;SDS011;12840;48.144;17.136;2023-03-04T09:20:32;45.47;;;25.10;;
24735;SDS011;12840;48.144;17.136;2023-03-04T09:23:00;48.20;;;25.93;;
24735;SDS011;12840;48.144;17.136;2023-03-04T09:25:29;48.07;;;24.73;;
24735;SDS011;12840;48.144;17.136;2023-03-04T09:27:56;46.33;;;24.80;;
24735;SDS011;12840;48.144;17.136;2023-03-04T09:30:24;51.07;;;25.50;;
24735;SDS011;12840;48.144;17.136;2023-03-04T09:32:51;48.80;;;25.80;;
24735;SDS011;12840;48.144;17.136;2023-03-04T09:35:19;47.47;;;25.23;;
24735;SDS011;12840;48.144;17.136;2023-03-04T09:37:46;47.53;;;26.13;;
24735;SDS011;12840;48.144;17.136;2023-03-04T09:40:15;49.47;;;25.97;;
24735;SDS011;12840;48.144;17.136;2023-03-04T09:42:47;48.07;;;25.73;;
24735;SDS011;12840;48.144;17.136;2023-03-04T09:45:15;56.23;;;26.37;;
24735;SDS011;12840;48.144;17.136;2023-03-04T09:47:43;47.37;;;25.73;;
24735;SDS011;12840;48.144;17.136;2023-03-04T09:50:11;49.88;;;26.17;;
24735;SDS011;12840;48.144;17.136;2023-03-04T09:52:42;44.13;;;25.75;;
24735;SDS011;12840;48.144;17.136;2023-03-04T09:55:14;45.00;;;26.92;;
24735;SDS011;12840;48.144;17.136;2023-03-04T09:57:47;42.35;;;26.00;;
24735;SDS011;12840;48.144;17.136;2023-03-04T10:00:18;49.30;;;26.52;;
24735;SDS011;12840;48.144;17.136;2023-03-04T10:02:50;40.80;;;24.60;;
24735;SDS011;12840;48.144;17.136;2023-03-04T10:05:24;41.17;;;26.15;;
24735;SDS011;12840;48.144;17.136;2023-03-04T10:07:54;39.38;;;25.55;;
24735;SDS011;12840;48.144;17.136;2023-03-04T10:10:23;36.58;;;26.05;;
24735;SDS011;12840;48.144;17.136;2023-03-04T10:12:53;41.10;;;24.90;;
24735;SDS011;12840;48.144;17.136;2023-03-04T10:15:22;36.15;;;24.90;;
24735;SDS011;12840;48.144;17.136;2023-03-04T10:17:52;39.95;;;25.05;;
24735;SDS011;12840;48.144;17.136;2023-03-04T10:20:21;39.70;;;25.15;;
24735;SDS011;12840;48.144;17.136;2023-03-04T10:22:50;33.92;;;23.92;;
24735;SDS011;12840;48.144;17.136;2023-03-04T10:25:19;42.45;;;26.33;;
24735;SDS011;12840;48.144;17.136;2023-03-04T10:27:48;39.22;;;26.23;;
24735;SDS011;12840;48.144;17.136;2023-03-04T10:30:20;38.42;;;25.95;;
24735;SDS011;12840;48.144;17.136;2023-03-04T10:32:49;39.15;;;24.88;;
24735;SDS011;12840;48.144;17.136;2023-03-04T10:35:17;36.80;;;24.67;;
24735;SDS011;12840;48.144;17.136;2023-03-04T10:37:48;35.35;;;25.25;;
24735;SDS011;12840;48.144;17.136;2023-03-04T10:40:20;36.33;;;25.70;;
24735;SDS011;12840;48.144;17.136;2023-03-04T10:42:48;36.95;;;25.08;;
24735;SDS011;12840;48.144;17.136;2023-03-04T10:45:20;39.00;;;25.80;;
24735;SDS011;12840;48.144;17.136;2023-03-04T10:47:51;39.08;;;25.65;;
24735;SDS011;12840;48.144;17.136;2023-03-04T10:50:23;36.80;;;25.98;;
24735;SDS011;12840;48.144;17.136;2023-03-04T10:52:50;37.83;;;25.20;;
24735;SDS011;12840;48.144;17.136;2023-03-04T10:55:22;36.63;;;26.23;;
24735;SDS011;12840;48.144;17.136;2023-03-04T10:57:51;43.90;;;26.10;;
24735;SDS011;12840;48.144;17.136;2023-03-04T11:00:26;41.90;;;26.13;;
24735;SDS011;12840;48.144;17.136;2023-03-04T11:03:11;40.10;;;25.05;;
24735;SDS011;12840;48.144;17.136;2023-03-04T11:05:46;41.83;;;24.60;;
24735;SDS011;12840;48.144;17.136;2023-03-04T11:08:16;34.45;;;22.25;;
24735;SDS011;12840;48.144;17.136;2023-03-04T11:10:44;40.25;;;22.48;;
24735;SDS011;12840;48.144;17.136;2023-03-04T11:13:12;38.17;;;21.98;;
24735;SDS011;12840;48.144;17.136;2023-03-04T11:15:49;34.75;;;22.23;;
24735;SDS011;12840;48.144;17.136;2023-03-04T11:18:18;34.17;;;20.48;;
24735;SDS011;12840;48.144;17.136;2023-03-04T11:20:47;33.10;;;20.85;;
24735;SDS011;12840;48.144;17.136;2023-03-04T11:23:16;32.33;;;19.92;;
24735;SDS011;12840;48.144;17.136;2023-03-04T11:25:45;31.95;;;19.42;;
24735;SDS011;12840;48.144;17.136;2023-03-04T11:28:15;35.42;;;19.88;;
24735;SDS011;12840;48.144;17.136;2023-03-04T11:30:44;33.30;;;17.90;;
24735;SDS011;12840;48.144;17.136;2023-03-04T11:33:18;35.67;;;17.55;;
24735;SDS011;12840;48.144;17.136;2023-03-04T11:35:52;29.58;;;17.80;;
24735;SDS011;12840;48.144;17.136;2023-03-04T11:38:23;28.13;;;17.37;;
24735;SDS011;12840;48.144;17.136;2023-03-04T11:40:53;27.73;;;16.55;;
24735;SDS011;12840;48.144;17.136;2023-03-04T11:43:24;30.02;;;16.85;;
24735;SDS011;12840;48.144;17.136;2023-03-04T11:45:57;26.55;;;16.42;;
24735;SDS011;12840;48.144;17.136;2023-03-04T11:48:34;26.63;;;16.52;;
24735;SDS011;12840;48.144;17.136;2023-03-04T11:51:05;26.20;;;16.40;;
24735;SDS011;12840;48.144;17.136;2023-03-04T11:53:39;29.63;;;16.00;;
24735;SDS011;12840;48.144;17.136;2023-03-04T11:56:15;29.83;;;14.70;;
24735;SDS011;12840;48.144;17.136;2023-03-04T12:01:32;25.27;;;14.50;;
24735;SDS011;12840;48.144;17.136;2023-03-04T12:04:09;25.38;;;14.68;;
24735;SDS011;12840;48.144;17.136;2023-03-04T12:06:42;25.37;;;14.60;;
24735;SDS011;12840;48.144;17.136;2023-03-04T12:09:16;23.03;;;13.73;;
24735;SDS011;12840;48.144;17.136;2023-03-04T12:11:52;26.47;;;13.40;;
24735;SDS011;12840;48.144;17.136;2023-03-04T12:14:25;22.33;;;13.00;;
24735;SDS011;12840;48.144;17.136;2023-03-04T12:17:07;21.10;;;13.40;;
24735;SDS011;12840;48.144;17.136;2023-03-04T12:19:42;22.30;;;13.63;;
24735;SDS011;12840;48.144;17.136;2023-03-04T12:25:03;22.50;;;13.20;;
24735;SDS011;12840;48.144;17.136;2023-03-04T12:27:33;23.53;;;13.30;;
24735;SDS011;12840;48.144;17.136;2023-03-04T12:30:05;21.03;;;12.63;;
24735;SDS011;12840;48.144;17.136;2023-03-04T12:32:42;23.73;;;12.70;;
24735;SDS011;12840;48.144;17.136;2023-03-04T12:38:04;18.93;;;11.30;;
24735;SDS011;12840;48.144;17.136;2023-03-04T12:40:37;18.20;;;10.53;;
24735;SDS011;12840;48.144;17.136;2023-03-04T12:46:16;21.47;;;12.70;;
24735;SDS011;12840;48.144;17.136;2023-03-04T12:48:48;17.80;;;10.60;;
24735;SDS011;12840;48.144;17.136;2023-03-04T12:51:22;15.37;;;9.07;;
24735;SDS011;12840;48.144;17.136;2023-03-04T12:53:57;17.53;;;9.10;;
24735;SDS011;12840;48.144;17.136;2023-03-04T12:56:27;16.50;;;9.70;;
24735;SDS011;12840;48.144;17.136;2023-03-04T12:58:58;15.07;;;8.67;;
24735;SDS011;12840;48.144;17.136;2023-03-04T13:01:26;13.27;;;7.53;;
24735;SDS011;12840;48.144;17.136;2023-03-04T13:03:57;13.80;;;7.23;;
24735;SDS011;12840;48.144;17.136;2023-03-04T13:06:28;15.03;;;7.50;;
24735;SDS011;12840;48.144;17.136;2023-03-04T13:09:00;118.30;;;64.33;;
24735;SDS011;12840;48.144;17.136;2023-03-04T13:11:39;15.67;;;9.70;;
24735;SDS011;12840;48.144;17.136;2023-03-04T13:14:07;10.63;;;6.17;;
24735;SDS011;12840;48.144;17.136;2023-03-04T13:16:49;10.33;;;6.10;;
24735;SDS011;12840;48.144;17.136;2023-03-04T13:22:23;23.03;;;13.50;;
24735;SDS011;12840;48.144;17.136;2023-03-04T13:24:53;22.97;;;12.67;;
24735;SDS011;12840;48.144;17.136;2023-03-04T13:32:50;15.30;;;9.40;;
24735;SDS011;12840;48.144;17.136;2023-03-04T13:38:19;18.57;;;10.90;;
24735;SDS011;12840;48.144;17.136;2023-03-04T13:43:37;21.80;;;11.87;;
24735;SDS011;12840;48.144;17.136;2023-03-04T13:48:59;23.97;;;12.73;;
24735;SDS011;12840;48.144;17.136;2023-03-04T13:51:28;21.00;;;12.97;;
24735;SDS011;12840;48.144;17.136;2023-03-04T13:54:05;21.33;;;12.93;;
24735;SDS011;12840;48.144;17.136;2023-03-04T13:56:33;25.83;;;13.17;;
24735;SDS011;12840;48.144;17.136;2023-03-04T13:59:07;23.27;;;14.07;;
24735;SDS011;12840;48.144;17.136;2023-03-04T14:01:47;28.13;;;14.87;;
24735;SDS011;12840;48.144;17.136;2023-03-04T14:04:15;27.03;;;14.60;;
24735;SDS011;12840;48.144;17.136;2023-03-04T14:06:44;27.60;;;15.23;;
24735;SDS011;12840;48.144;17.136;2023-03-04T14:09:12;28.57;;;14.63;;
24735;SDS011;12840;48.144;17.136;2023-03-04T14:11:40;30.20;;;14.67;;
24735;SDS011;12840;48.144;17.136;2023-03-04T14:14:10;26.80;;;14.87;;
24735;SDS011;12840;48.144;17.136;2023-03-04T14:16:39;25.70;;;15.10;;
24735;SDS011;12840;48.144;17.136;2023-03-04T14:19:13;30.67;;;15.57;;
24735;SDS011;12840;48.144;17.136;2023-03-04T14:21:45;32.07;;;14.87;;
24735;SDS011;12840;48.144;17.136;2023-03-04T14:24:13;26.63;;;15.60;;
24735;SDS011;12840;48.144;17.136;2023-03-04T14:26:40;28.43;;;15.20;;
24735;SDS011;12840;48.144;17.136;2023-03-04T14:29:23;28.77;;;14.77;;
24735;SDS011;12840;48.144;17.136;2023-03-04T14:31:51;27.53;;;14.47;;
24735;SDS011;12840;48.144;17.136;2023-03-04T14:34:22;25.90;;;14.93;;
24735;SDS011;12840;48.144;17.136;2023-03-04T14:36:50;27.43;;;15.10;;
24735;SDS011;12840;48.144;17.136;2023-03-04T14:39:17;27.33;;;15.30;;
24735;SDS011;12840;48.144;17.136;2023-03-04T14:41:46;27.37;;;14.57;;
24735;SDS011;12840;48.144;17.136;2023-03-04T14:44:15;28.00;;;15.20;;
24735;SDS011;12840;48.144;17.136;2023-03-04T14:46:48;27.40;;;14.50;;
24735;SDS011;12840;48.144;17.136;2023-03-04T14:49:16;25.50;;;14.20;;
24735;SDS011;12840;48.144;17.136;2023-03-04T14:51:45;26.03;;;14.37;;